sensor_id;sensor_type;location;lat;lon;timestamp;P1;durP1;ratioP1;P2;durP2;ratioP2
22531;SDS011;11432;46.924;7.114;2023-07-08T00:00:49;9.98;;;3.80;;
22531;SDS011;11432;46.924;7.114;2023-07-08T00:03:15;7.80;;;3.42;;
22531;SDS011;11432;46.924;7.114;2023-07-08T00:05:42;6.20;;;3.30;;
22531;SDS011;11432;46.924;7.114;2023-07-08T00:08:11;7.07;;;3.75;;
22531;SDS011;11432;46.924;7.114;2023-07-08T00:10:38;8.32;;;3.88;;
22531;SDS011;11432;46.924;7.114;2023-07-08T00:13:04;7.10;;;3.65;;
22531;SDS011;11432;46.924;7.114;2023-07-08T00:15:30;10.70;;;3.97;;
22531;SDS011;11432;46.924;7.114;2023-07-08T00:18:00;8.73;;;3.78;;
22531;SDS011;11432;46.924;7.114;2023-07-08T00:20:36;7.35;;;3.75;;
22531;SDS011;11432;46.924;7.114;2023-07-08T00:23:04;9.63;;;3.85;;
22531;SDS011;11432;46.924;7.114;2023-07-08T00:25:30;9.57;;;3.38;;
22531;SDS011;11432;46.924;7.114;2023-07-08T00:27:56;11.45;;;4.25;;
22531;SDS011;11432;46.924;7.114;2023-07-08T00:30:23;9.63;;;3.85;;
22531;SDS011;11432;46.924;7.114;2023-07-08T00:32:49;7.30;;;3.53;;
22531;SDS011;11432;46.924;7.114;2023-07-08T00:36:01;10.20;;;3.75;;
22531;SDS011;11432;46.924;7.114;2023-07-08T00:38:16;8.77;;;3.72;;
22531;SDS011;11432;46.924;7.114;2023-07-08T00:41:16;10.23;;;4.10;;
22531;SDS011;11432;46.924;7.114;2023-07-08T00:43:42;13.85;;;3.63;;
22531;SDS011;11432;46.924;7.114;2023-07-08T00:52:19;9.27;;;3.60;;
22531;SDS011;11432;46.924;7.114;2023-07-08T00:54:53;9.35;;;3.60;;
22531;SDS011;11432;46.924;7.114;2023-07-08T00:57:25;11.32;;;4.25;;
22531;SDS011;11432;46.924;7.114;2023-07-08T01:00:05;9.15;;;3.45;;
22531;SDS011;11432;46.924;7.114;2023-07-08T01:02:40;15.48;;;3.65;;
22531;SDS011;11432;46.924;7.114;2023-07-08T01:05:17;8.32;;;3.60;;
22531;SDS011;11432;46.924;7.114;2023-07-08T01:07:45;7.30;;;3.50;;
22531;SDS011;11432;46.924;7.114;2023-07-08T01:10:18;10.65;;;3.67;;
22531;SDS011;11432;46.924;7.114;2023-07-08T01:12:51;8.32;;;3.67;;
22531;SDS011;11432;46.924;7.114;2023-07-08T01:15:21;11.32;;;3.88;;
22531;SDS011;11432;46.924;7.114;2023-07-08T01:17:51;10.77;;;3.72;;
22531;SDS011;11432;46.924;7.114;2023-07-08T01:20:18;7.97;;;4.07;;
22531;SDS011;11432;46.924;7.114;2023-07-08T01:22:44;10.10;;;4.18;;
22531;SDS011;11432;46.924;7.114;2023-07-08T01:25:10;10.55;;;3.80;;
22531;SDS011;11432;46.924;7.114;2023-07-08T01:27:39;8.40;;;3.50;;
22531;SDS011;11432;46.924;7.114;2023-07-08T01:30:09;13.20;;;4.40;;
22531;SDS011;11432;46.924;7.114;2023-07-08T01:32:36;9.88;;;3.88;;
22531;SDS011;11432;46.924;7.114;2023-07-08T01:35:05;8.27;;;4.00;;
22531;SDS011;11432;46.924;7.114;2023-07-08T01:41:04;9.02;;;3.78;;
22531;SDS011;11432;46.924;7.114;2023-07-08T01:43:00;11.20;;;4.40;;
22531;SDS011;11432;46.924;7.114;2023-07-08T01:45:29;9.00;;;4.05;;
22531;SDS011;11432;46.924;7.114;2023-07-08T01:48:20;9.10;;;3.60;;
22531;SDS011;11432;46.924;7.114;2023-07-08T01:50:49;10.25;;;3.97;;
22531;SDS011;11432;46.924;7.114;2023-07-08T01:53:34;12.35;;;4.30;;
22531;SDS011;11432;46.924;7.114;2023-07-08T01:56:02;8.48;;;3.70;;
22531;SDS011;11432;46.924;7.114;2023-07-08T01:58:29;8.38;;;3.85;;
22531;SDS011;11432;46.924;7.114;2023-07-08T02:00:54;9.38;;;3.75;;
22531;SDS011;11432;46.924;7.114;2023-07-08T02:03:20;12.30;;;3.92;;
22531;SDS011;11432;46.924;7.114;2023-07-08T02:05:47;11.95;;;4.07;;
22531;SDS011;11432;46.924;7.114;2023-07-08T02:08:12;8.13;;;3.53;;
22531;SDS011;11432;46.924;7.114;2023-07-08T02:10:39;6.85;;;3.60;;
22531;SDS011;11432;46.924;7.114;2023-07-08T02:13:06;9.48;;;3.72;;
22531;SDS011;11432;46.924;7.114;2023-07-08T02:15:31;11.02;;;4.47;;
22531;SDS011;11432;46.924;7.114;2023-07-08T02:17:57;8.15;;;3.58;;
22531;SDS011;11432;46.924;7.114;2023-07-08T02:20:23;8.23;;;4.05;;
22531;SDS011;11432;46.924;7.114;2023-07-08T02:22:49;6.00;;;3.47;;
22531;SDS011;11432;46.924;7.114;2023-07-08T02:25:14;11.52;;;3.38;;
22531;SDS011;11432;46.924;7.114;2023-07-08T02:27:40;7.47;;;3.38;;
22531;SDS011;11432;46.924;7.114;2023-07-08T02:30:06;13.77;;;4.13;;
22531;SDS011;11432;46.924;7.114;2023-07-08T02:32:33;8.77;;;4.03;;
22531;SDS011;11432;46.924;7.114;2023-07-08T02:35:00;8.90;;;3.97;;
22531;SDS011;11432;46.924;7.114;2023-07-08T02:37:35;8.98;;;3.83;;
22531;SDS011;11432;46.924;7.114;2023-07-08T02:40:00;10.18;;;4.40;;
22531;SDS011;11432;46.924;7.114;2023-07-08T02:42:26;9.77;;;4.55;;
22531;SDS011;11432;46.924;7.114;2023-07-08T02:44:52;10.18;;;3.92;;
22531;SDS011;11432;46.924;7.114;2023-07-08T02:47:17;8.55;;;4.03;;
22531;SDS011;11432;46.924;7.114;2023-07-08T02:49:43;9.27;;;4.40;;
22531;SDS011;11432;46.924;7.114;2023-07-08T02:52:09;8.45;;;3.83;;
22531;SDS011;11432;46.924;7.114;2023-07-08T02:54:34;7.65;;;3.55;;
22531;SDS011;11432;46.924;7.114;2023-07-08T02:57:00;7.85;;;4.00;;
22531;SDS011;11432;46.924;7.114;2023-07-08T02:59:26;11.30;;;4.13;;
22531;SDS011;11432;46.924;7.114;2023-07-08T03:01:54;7.35;;;3.88;;
22531;SDS011;11432;46.924;7.114;2023-07-08T03:04:20;11.18;;;3.70;;
22531;SDS011;11432;46.924;7.114;2023-07-08T03:06:47;10.07;;;3.78;;
22531;SDS011;11432;46.924;7.114;2023-07-08T03:09:15;7.72;;;3.78;;
22531;SDS011;11432;46.924;7.114;2023-07-08T03:11:40;9.38;;;3.97;;
22531;SDS011;11432;46.924;7.114;2023-07-08T03:14:06;6.82;;;3.75;;
22531;SDS011;11432;46.924;7.114;2023-07-08T03:16:32;11.60;;;4.40;;
22531;SDS011;11432;46.924;7.114;2023-07-08T03:18:57;11.80;;;4.40;;
22531;SDS011;11432;46.924;7.114;2023-07-08T03:21:23;11.52;;;4.40;;
22531;SDS011;11432;46.924;7.114;2023-07-08T03:23:49;9.98;;;3.85;;
22531;SDS011;11432;46.924;7.114;2023-07-08T03:26:16;10.85;;;4.40;;
22531;SDS011;11432;46.924;7.114;2023-07-08T03:31:10;16.23;;;4.05;;
22531;SDS011;11432;46.924;7.114;2023-07-08T03:33:36;8.77;;;3.97;;
22531;SDS011;11432;46.924;7.114;2023-07-08T03:36:02;8.95;;;3.92;;
22531;SDS011;11432;46.924;7.114;2023-07-08T03:38:37;12.68;;;4.25;;
22531;SDS011;11432;46.924;7.114;2023-07-08T03:41:04;10.55;;;4.00;;
22531;SDS011;11432;46.924;7.114;2023-07-08T03:43:29;15.98;;;5.55;;
22531;SDS011;11432;46.924;7.114;2023-07-08T03:45:55;13.30;;;3.95;;
22531;SDS011;11432;46.924;7.114;2023-07-08T03:48:21;9.95;;;4.05;;
22531;SDS011;11432;46.924;7.114;2023-07-08T03:50:47;12.73;;;4.85;;
22531;SDS011;11432;46.924;7.114;2023-07-08T03:53:12;16.42;;;5.00;;
22531;SDS011;11432;46.924;7.114;2023-07-08T03:55:38;15.65;;;5.13;;
22531;SDS011;11432;46.924;7.114;2023-07-08T03:58:03;16.08;;;4.90;;
22531;SDS011;11432;46.924;7.114;2023-07-08T04:00:29;11.00;;;4.65;;
22531;SDS011;11432;46.924;7.114;2023-07-08T04:02:55;13.82;;;4.93;;
22531;SDS011;11432;46.924;7.114;2023-07-08T04:05:21;10.93;;;4.35;;
22531;SDS011;11432;46.924;7.114;2023-07-08T04:07:48;16.08;;;5.25;;
22531;SDS011;11432;46.924;7.114;2023-07-08T04:10:14;12.95;;;4.57;;
22531;SDS011;11432;46.924;7.114;2023-07-08T04:12:41;13.63;;;4.40;;
22531;SDS011;11432;46.924;7.114;2023-07-08T04:15:08;12.20;;;4.20;;
22531;SDS011;11432;46.924;7.114;2023-07-08T04:17:45;9.50;;;3.55;;
22531;SDS011;11432;46.924;7.114;2023-07-08T04:20:13;15.70;;;3.25;;
22531;SDS011;11432;46.924;7.114;2023-07-08T04:22:41;7.45;;;3.50;;
22531;SDS011;11432;46.924;7.114;2023-07-08T04:25:06;18.63;;;4.30;;
22531;SDS011;11432;46.924;7.114;2023-07-08T04:27:32;10.25;;;3.70;;
22531;SDS011;11432;46.924;7.114;2023-07-08T04:29:58;13.23;;;4.05;;
22531;SDS011;11432;46.924;7.114;2023-07-08T04:32:23;14.00;;;4.00;;
22531;SDS011;11432;46.924;7.114;2023-07-08T04:34:50;6.70;;;3.10;;
22531;SDS011;11432;46.924;7.114;2023-07-08T04:37:16;9.43;;;3.60;;
22531;SDS011;11432;46.924;7.114;2023-07-08T04:39:42;6.80;;;3.10;;
22531;SDS011;11432;46.924;7.114;2023-07-08T04:42:07;9.77;;;3.42;;
22531;SDS011;11432;46.924;7.114;2023-07-08T04:44:33;8.23;;;3.15;;
22531;SDS011;11432;46.924;7.114;2023-07-08T04:46:59;7.95;;;2.88;;
22531;SDS011;11432;46.924;7.114;2023-07-08T04:49:25;11.68;;;3.47;;
22531;SDS011;11432;46.924;7.114;2023-07-08T04:51:56;8.65;;;3.13;;
22531;SDS011;11432;46.924;7.114;2023-07-08T04:54:23;10.48;;;3.13;;
22531;SDS011;11432;46.924;7.114;2023-07-08T04:56:48;7.70;;;2.85;;
22531;SDS011;11432;46.924;7.114;2023-07-08T04:59:15;11.38;;;3.10;;
22531;SDS011;11432;46.924;7.114;2023-07-08T05:01:42;11.50;;;3.83;;
22531;SDS011;11432;46.924;7.114;2023-07-08T05:04:09;7.03;;;3.20;;
22531;SDS011;11432;46.924;7.114;2023-07-08T05:06:37;6.15;;;2.95;;
22531;SDS011;11432;46.924;7.114;2023-07-08T05:09:04;9.27;;;3.20;;
22531;SDS011;11432;46.924;7.114;2023-07-08T05:11:30;8.00;;;2.90;;
22531;SDS011;11432;46.924;7.114;2023-07-08T05:13:56;9.40;;;3.53;;
22531;SDS011;11432;46.924;7.114;2023-07-08T05:16:22;6.88;;;3.25;;
22531;SDS011;11432;46.924;7.114;2023-07-08T05:18:48;7.95;;;3.20;;
22531;SDS011;11432;46.924;7.114;2023-07-08T05:21:14;11.77;;;4.20;;
22531;SDS011;11432;46.924;7.114;2023-07-08T05:23:40;7.40;;;3.42;;
22531;SDS011;11432;46.924;7.114;2023-07-08T05:26:06;8.05;;;3.28;;
22531;SDS011;11432;46.924;7.114;2023-07-08T05:28:32;11.27;;;3.40;;
22531;SDS011;11432;46.924;7.114;2023-07-08T05:30:59;7.63;;;3.47;;
22531;SDS011;11432;46.924;7.114;2023-07-08T05:33:25;9.90;;;3.60;;
22531;SDS011;11432;46.924;7.114;2023-07-08T05:35:52;12.43;;;3.25;;
22531;SDS011;11432;46.924;7.114;2023-07-08T05:38:19;5.88;;;3.10;;
22531;SDS011;11432;46.924;7.114;2023-07-08T05:40:48;8.60;;;3.42;;
22531;SDS011;11432;46.924;7.114;2023-07-08T05:43:19;8.07;;;3.25;;
22531;SDS011;11432;46.924;7.114;2023-07-08T05:45:44;9.27;;;3.20;;
22531;SDS011;11432;46.924;7.114;2023-07-08T05:48:10;8.15;;;3.13;;
22531;SDS011;11432;46.924;7.114;2023-07-08T05:50:36;8.10;;;3.10;;
22531;SDS011;11432;46.924;7.114;2023-07-08T05:53:02;8.35;;;3.45;;
22531;SDS011;11432;46.924;7.114;2023-07-08T05:55:27;7.35;;;3.53;;
22531;SDS011;11432;46.924;7.114;2023-07-08T05:57:53;6.97;;;3.25;;
22531;SDS011;11432;46.924;7.114;2023-07-08T06:00:19;7.68;;;3.72;;
22531;SDS011;11432;46.924;7.114;2023-07-08T06:02:45;8.38;;;3.40;;
22531;SDS011;11432;46.924;7.114;2023-07-08T06:05:11;8.52;;;3.30;;
22531;SDS011;11432;46.924;7.114;2023-07-08T06:07:37;7.88;;;3.13;;
22531;SDS011;11432;46.924;7.114;2023-07-08T06:10:02;8.80;;;3.30;;
22531;SDS011;11432;46.924;7.114;2023-07-08T06:12:29;7.63;;;3.40;;
22531;SDS011;11432;46.924;7.114;2023-07-08T06:14:59;9.00;;;3.40;;
22531;SDS011;11432;46.924;7.114;2023-07-08T06:17:25;8.50;;;3.40;;
22531;SDS011;11432;46.924;7.114;2023-07-08T06:19:50;14.20;;;3.53;;
22531;SDS011;11432;46.924;7.114;2023-07-08T06:22:16;10.75;;;3.88;;
22531;SDS011;11432;46.924;7.114;2023-07-08T06:24:41;9.50;;;3.88;;
22531;SDS011;11432;46.924;7.114;2023-07-08T06:27:07;8.55;;;3.53;;
22531;SDS011;11432;46.924;7.114;2023-07-08T06:29:33;8.88;;;3.40;;
22531;SDS011;11432;46.924;7.114;2023-07-08T06:32:00;10.15;;;2.95;;
22531;SDS011;11432;46.924;7.114;2023-07-08T06:34:26;7.65;;;2.80;;
22531;SDS011;11432;46.924;7.114;2023-07-08T06:36:51;6.40;;;2.88;;
22531;SDS011;11432;46.924;7.114;2023-07-08T06:39:17;8.00;;;3.47;;
22531;SDS011;11432;46.924;7.114;2023-07-08T06:41:43;9.25;;;3.15;;
22531;SDS011;11432;46.924;7.114;2023-07-08T06:44:09;9.15;;;3.20;;
22531;SDS011;11432;46.924;7.114;2023-07-08T06:46:35;7.18;;;3.28;;
22531;SDS011;11432;46.924;7.114;2023-07-08T06:49:01;7.88;;;3.65;;
22531;SDS011;11432;46.924;7.114;2023-07-08T06:51:27;8.60;;;3.65;;
22531;SDS011;11432;46.924;7.114;2023-07-08T06:53:52;10.02;;;3.85;;
22531;SDS011;11432;46.924;7.114;2023-07-08T06:56:19;11.45;;;3.60;;
22531;SDS011;11432;46.924;7.114;2023-07-08T06:58:44;9.02;;;4.03;;
22531;SDS011;11432;46.924;7.114;2023-07-08T07:01:10;9.05;;;3.55;;
22531;SDS011;11432;46.924;7.114;2023-07-08T07:03:36;7.93;;;3.75;;
22531;SDS011;11432;46.924;7.114;2023-07-08T07:06:01;7.22;;;3.20;;
22531;SDS011;11432;46.924;7.114;2023-07-08T07:08:27;8.57;;;3.53;;
22531;SDS011;11432;46.924;7.114;2023-07-08T07:10:52;7.88;;;3.30;;
22531;SDS011;11432;46.924;7.114;2023-07-08T07:13:18;9.52;;;2.65;;
22531;SDS011;11432;46.924;7.114;2023-07-08T07:15:44;7.90;;;3.53;;
22531;SDS011;11432;46.924;7.114;2023-07-08T07:18:09;6.55;;;3.10;;
22531;SDS011;11432;46.924;7.114;2023-07-08T07:20:36;8.40;;;3.05;;
22531;SDS011;11432;46.924;7.114;2023-07-08T07:23:03;9.80;;;3.53;;
22531;SDS011;11432;46.924;7.114;2023-07-08T07:25:28;6.82;;;3.00;;
22531;SDS011;11432;46.924;7.114;2023-07-08T07:27:54;7.72;;;3.15;;
22531;SDS011;11432;46.924;7.114;2023-07-08T07:30:20;8.23;;;3.42;;
22531;SDS011;11432;46.924;7.114;2023-07-08T07:32:46;10.82;;;5.05;;
22531;SDS011;11432;46.924;7.114;2023-07-08T07:35:12;7.93;;;3.22;;
22531;SDS011;11432;46.924;7.114;2023-07-08T07:37:40;6.68;;;3.40;;
22531;SDS011;11432;46.924;7.114;2023-07-08T07:40:09;6.97;;;3.55;;
22531;SDS011;11432;46.924;7.114;2023-07-08T07:42:40;7.50;;;3.25;;
22531;SDS011;11432;46.924;7.114;2023-07-08T07:45:07;6.93;;;3.67;;
22531;SDS011;11432;46.924;7.114;2023-07-08T07:47:34;6.90;;;3.47;;
22531;SDS011;11432;46.924;7.114;2023-07-08T07:50:00;7.28;;;3.35;;
22531;SDS011;11432;46.924;7.114;2023-07-08T07:52:27;12.50;;;3.70;;
22531;SDS011;11432;46.924;7.114;2023-07-08T07:54:52;7.13;;;3.15;;
22531;SDS011;11432;46.924;7.114;2023-07-08T07:57:19;7.70;;;3.53;;
22531;SDS011;11432;46.924;7.114;2023-07-08T07:59:45;6.65;;;3.05;;
22531;SDS011;11432;46.924;7.114;2023-07-08T08:02:11;6.88;;;3.13;;
22531;SDS011;11432;46.924;7.114;2023-07-08T08:04:37;9.35;;;3.50;;
22531;SDS011;11432;46.924;7.114;2023-07-08T08:07:03;9.38;;;3.05;;
22531;SDS011;11432;46.924;7.114;2023-07-08T08:09:29;7.97;;;3.33;;
22531;SDS011;11432;46.924;7.114;2023-07-08T08:11:54;6.55;;;2.75;;
22531;SDS011;11432;46.924;7.114;2023-07-08T08:14:20;6.88;;;3.22;;
22531;SDS011;11432;46.924;7.114;2023-07-08T08:16:46;11.23;;;3.47;;
22531;SDS011;11432;46.924;7.114;2023-07-08T08:19:12;8.18;;;2.70;;
22531;SDS011;11432;46.924;7.114;2023-07-08T08:21:37;5.15;;;2.70;;
22531;SDS011;11432;46.924;7.114;2023-07-08T08:24:03;9.90;;;3.00;;
22531;SDS011;11432;46.924;7.114;2023-07-08T08:26:29;5.80;;;2.80;;
22531;SDS011;11432;46.924;7.114;2023-07-08T08:28:55;6.50;;;3.08;;
22531;SDS011;11432;46.924;7.114;2023-07-08T08:31:21;7.65;;;3.30;;
22531;SDS011;11432;46.924;7.114;2023-07-08T08:33:46;5.40;;;2.95;;
22531;SDS011;11432;46.924;7.114;2023-07-08T08:36:12;7.72;;;2.97;;
22531;SDS011;11432;46.924;7.114;2023-07-08T08:38:37;7.50;;;3.30;;
22531;SDS011;11432;46.924;7.114;2023-07-08T08:41:11;6.57;;;2.75;;
22531;SDS011;11432;46.924;7.114;2023-07-08T08:43:39;7.22;;;3.30;;
22531;SDS011;11432;46.924;7.114;2023-07-08T08:48:58;9.95;;;3.40;;
22531;SDS011;11432;46.924;7.114;2023-07-08T08:51:35;5.85;;;2.63;;
22531;SDS011;11432;46.924;7.114;2023-07-08T08:54:01;6.35;;;3.25;;
22531;SDS011;11432;46.924;7.114;2023-07-08T08:56:28;8.50;;;2.55;;
22531;SDS011;11432;46.924;7.114;2023-07-08T09:01:44;5.40;;;2.60;;
22531;SDS011;11432;46.924;7.114;2023-07-08T09:04:16;5.82;;;2.78;;
22531;SDS011;11432;46.924;7.114;2023-07-08T09:06:46;5.97;;;2.22;;
22531;SDS011;11432;46.924;7.114;2023-07-08T09:09:55;4.47;;;2.63;;
22531;SDS011;11432;46.924;7.114;2023-07-08T09:12:06;4.78;;;2.15;;
22531;SDS011;11432;46.924;7.114;2023-07-08T09:14:38;4.85;;;2.30;;
22531;SDS011;11432;46.924;7.114;2023-07-08T09:19:43;6.55;;;2.58;;
22531;SDS011;11432;46.924;7.114;2023-07-08T09:28:21;3.97;;;2.08;;
22531;SDS011;11432;46.924;7.114;2023-07-08T09:30:51;8.90;;;2.97;;
22531;SDS011;11432;46.924;7.114;2023-07-08T09:33:19;5.82;;;2.78;;
22531;SDS011;11432;46.924;7.114;2023-07-08T09:35:47;5.93;;;2.70;;
22531;SDS011;11432;46.924;7.114;2023-07-08T09:38:18;5.63;;;2.30;;
22531;SDS011;11432;46.924;7.114;2023-07-08T09:40:50;5.43;;;2.30;;
22531;SDS011;11432;46.924;7.114;2023-07-08T09:43:35;4.63;;;2.25;;
22531;SDS011;11432;46.924;7.114;2023-07-08T09:46:03;5.35;;;2.38;;
22531;SDS011;11432;46.924;7.114;2023-07-08T09:48:31;4.80;;;2.20;;
22531;SDS011;11432;46.924;7.114;2023-07-08T09:51:00;5.20;;;1.95;;
22531;SDS011;11432;46.924;7.114;2023-07-08T09:53:26;6.97;;;2.72;;
22531;SDS011;11432;46.924;7.114;2023-07-08T09:55:52;6.30;;;2.50;;
22531;SDS011;11432;46.924;7.114;2023-07-08T09:58:21;4.53;;;1.92;;
22531;SDS011;11432;46.924;7.114;2023-07-08T10:00:55;5.13;;;2.47;;
22531;SDS011;11432;46.924;7.114;2023-07-08T10:03:27;7.17;;;2.70;;
22531;SDS011;11432;46.924;7.114;2023-07-08T10:05:57;4.78;;;2.17;;
22531;SDS011;11432;46.924;7.114;2023-07-08T10:08:28;5.30;;;2.20;;
22531;SDS011;11432;46.924;7.114;2023-07-08T10:11:03;3.65;;;1.98;;
22531;SDS011;11432;46.924;7.114;2023-07-08T10:13:52;4.68;;;2.20;;
22531;SDS011;11432;46.924;7.114;2023-07-08T10:16:25;5.22;;;2.08;;
22531;SDS011;11432;46.924;7.114;2023-07-08T10:18:51;7.68;;;2.40;;
22531;SDS011;11432;46.924;7.114;2023-07-08T10:21:24;6.00;;;1.90;;
22531;SDS011;11432;46.924;7.114;2023-07-08T10:33:05;6.85;;;2.22;;
22531;SDS011;11432;46.924;7.114;2023-07-08T10:36:05;4.50;;;1.75;;
22531;SDS011;11432;46.924;7.114;2023-07-08T10:41:21;9.23;;;2.28;;
22531;SDS011;11432;46.924;7.114;2023-07-08T10:44:05;4.88;;;2.10;;
22531;SDS011;11432;46.924;7.114;2023-07-08T11:08:51;3.30;;;1.80;;
22531;SDS011;11432;46.924;7.114;2023-07-08T11:11:32;6.70;;;2.35;;
22531;SDS011;11432;46.924;7.114;2023-07-08T11:14:10;5.30;;;2.17;;
22531;SDS011;11432;46.924;7.114;2023-07-08T11:16:37;4.65;;;1.75;;
22531;SDS011;11432;46.924;7.114;2023-07-08T11:19:23;5.93;;;2.03;;
22531;SDS011;11432;46.924;7.114;2023-07-08T11:21:57;4.13;;;2.00;;
22531;SDS011;11432;46.924;7.114;2023-07-08T11:24:37;3.35;;;2.03;;
22531;SDS011;11432;46.924;7.114;2023-07-08T11:29:48;4.93;;;1.95;;
22531;SDS011;11432;46.924;7.114;2023-07-08T11:32:35;5.53;;;2.10;;
22531;SDS011;11432;46.924;7.114;2023-07-08T11:35:02;5.80;;;2.65;;
22531;SDS011;11432;46.924;7.114;2023-07-08T11:37:30;4.95;;;2.13;;
22531;SDS011;11432;46.924;7.114;2023-07-08T11:40:08;6.35;;;2.13;;
22531;SDS011;11432;46.924;7.114;2023-07-08T11:42:43;7.75;;;2.47;;
22531;SDS011;11432;46.924;7.114;2023-07-08T11:47:47;3.97;;;2.20;;
22531;SDS011;11432;46.924;7.114;2023-07-08T11:53:09;6.30;;;1.98;;
22531;SDS011;11432;46.924;7.114;2023-07-08T11:58:51;6.13;;;2.45;;
22531;SDS011;11432;46.924;7.114;2023-07-08T12:01:39;3.33;;;1.85;;
22531;SDS011;11432;46.924;7.114;2023-07-08T12:11:59;3.88;;;1.83;;
22531;SDS011;11432;46.924;7.114;2023-07-08T12:14:27;5.00;;;2.45;;
22531;SDS011;11432;46.924;7.114;2023-07-08T12:16:54;3.70;;;1.98;;
22531;SDS011;11432;46.924;7.114;2023-07-08T12:19:20;5.38;;;2.60;;
22531;SDS011;11432;46.924;7.114;2023-07-08T12:21:50;6.10;;;2.28;;
22531;SDS011;11432;46.924;7.114;2023-07-08T12:24:17;5.45;;;2.50;;
22531;SDS011;11432;46.924;7.114;2023-07-08T12:26:43;4.35;;;2.38;;
22531;SDS011;11432;46.924;7.114;2023-07-08T12:29:12;7.38;;;2.67;;
22531;SDS011;11432;46.924;7.114;2023-07-08T12:34:07;3.65;;;1.50;;
22531;SDS011;11432;46.924;7.114;2023-07-08T12:36:37;7.72;;;1.30;;
22531;SDS011;11432;46.924;7.114;2023-07-08T12:39:03;5.60;;;2.10;;
22531;SDS011;11432;46.924;7.114;2023-07-08T12:41:31;6.97;;;2.25;;
22531;SDS011;11432;46.924;7.114;2023-07-08T12:44:00;5.03;;;1.92;;
22531;SDS011;11432;46.924;7.114;2023-07-08T12:46:27;5.25;;;2.63;;
22531;SDS011;11432;46.924;7.114;2023-07-08T12:48:53;7.32;;;2.33;;
22531;SDS011;11432;46.924;7.114;2023-07-08T12:51:20;4.60;;;2.25;;
22531;SDS011;11432;46.924;7.114;2023-07-08T12:56:14;7.88;;;2.10;;
22531;SDS011;11432;46.924;7.114;2023-07-08T12:58:42;6.00;;;2.58;;
22531;SDS011;11432;46.924;7.114;2023-07-08T13:01:13;6.07;;;2.53;;
22531;SDS011;11432;46.924;7.114;2023-07-08T13:03:43;6.28;;;2.13;;
22531;SDS011;11432;46.924;7.114;2023-07-08T13:08:41;5.93;;;2.23;;
22531;SDS011;11432;46.924;7.114;2023-07-08T13:11:08;4.82;;;2.50;;
22531;SDS011;11432;46.924;7.114;2023-07-08T13:13:37;4.65;;;2.38;;
22531;SDS011;11432;46.924;7.114;2023-07-08T13:16:08;4.97;;;1.92;;
22531;SDS011;11432;46.924;7.114;2023-07-08T13:18:44;4.55;;;2.38;;
22531;SDS011;11432;46.924;7.114;2023-07-08T13:21:12;6.95;;;2.30;;
22531;SDS011;11432;46.924;7.114;2023-07-08T13:23:39;4.40;;;2.37;;
22531;SDS011;11432;46.924;7.114;2023-07-08T13:26:15;5.00;;;2.03;;
22531;SDS011;11432;46.924;7.114;2023-07-08T13:28:43;6.22;;;2.47;;
22531;SDS011;11432;46.924;7.114;2023-07-08T13:31:17;6.00;;;2.30;;
22531;SDS011;11432;46.924;7.114;2023-07-08T13:33:56;6.18;;;2.40;;
22531;SDS011;11432;46.924;7.114;2023-07-08T13:36:32;6.57;;;2.33;;
22531;SDS011;11432;46.924;7.114;2023-07-08T13:39:05;5.50;;;2.17;;
22531;SDS011;11432;46.924;7.114;2023-07-08T13:41:32;8.73;;;2.58;;
22531;SDS011;11432;46.924;7.114;2023-07-08T13:44:03;3.95;;;2.25;;
22531;SDS011;11432;46.924;7.114;2023-07-08T13:46:37;5.47;;;2.58;;
22531;SDS011;11432;46.924;7.114;2023-07-08T13:51:45;4.22;;;2.15;;
22531;SDS011;11432;46.924;7.114;2023-07-08T13:56:46;6.10;;;2.33;;
22531;SDS011;11432;46.924;7.114;2023-07-08T13:59:18;6.25;;;2.45;;
22531;SDS011;11432;46.924;7.114;2023-07-08T14:01:46;8.95;;;2.80;;
22531;SDS011;11432;46.924;7.114;2023-07-08T14:04:15;5.57;;;2.55;;
22531;SDS011;11432;46.924;7.114;2023-07-08T14:06:43;5.28;;;2.20;;
22531;SDS011;11432;46.924;7.114;2023-07-08T14:09:13;6.18;;;2.22;;
22531;SDS011;11432;46.924;7.114;2023-07-08T14:11:46;5.10;;;2.47;;
22531;SDS011;11432;46.924;7.114;2023-07-08T14:14:13;4.85;;;2.03;;
22531;SDS011;11432;46.924;7.114;2023-07-08T14:16:40;4.88;;;2.20;;
22531;SDS011;11432;46.924;7.114;2023-07-08T14:19:16;6.05;;;2.80;;
22531;SDS011;11432;46.924;7.114;2023-07-08T14:21:45;7.32;;;2.65;;
22531;SDS011;11432;46.924;7.114;2023-07-08T14:24:13;6.75;;;3.33;;
22531;SDS011;11432;46.924;7.114;2023-07-08T14:26:43;5.50;;;2.50;;
22531;SDS011;11432;46.924;7.114;2023-07-08T14:29:09;5.93;;;2.35;;
22531;SDS011;11432;46.924;7.114;2023-07-08T14:31:35;6.47;;;2.50;;
22531;SDS011;11432;46.924;7.114;2023-07-08T14:34:03;4.95;;;2.13;;
22531;SDS011;11432;46.924;7.114;2023-07-08T14:36:35;8.73;;;2.22;;
22531;SDS011;11432;46.924;7.114;2023-07-08T14:39:01;5.93;;;2.70;;
22531;SDS011;11432;46.924;7.114;2023-07-08T14:41:38;4.25;;;2.05;;
22531;SDS011;11432;46.924;7.114;2023-07-08T14:44:46;4.35;;;2.35;;
22531;SDS011;11432;46.924;7.114;2023-07-08T14:46:56;5.80;;;2.22;;
22531;SDS011;11432;46.924;7.114;2023-07-08T14:49:23;7.88;;;2.88;;
22531;SDS011;11432;46.924;7.114;2023-07-08T14:51:49;5.00;;;2.33;;
22531;SDS011;11432;46.924;7.114;2023-07-08T14:54:16;5.70;;;2.28;;
22531;SDS011;11432;46.924;7.114;2023-07-08T14:56:43;6.05;;;2.53;;
22531;SDS011;11432;46.924;7.114;2023-07-08T14:59:18;4.80;;;2.47;;
22531;SDS011;11432;46.924;7.114;2023-07-08T15:01:45;6.90;;;2.55;;
22531;SDS011;11432;46.924;7.114;2023-07-08T15:04:12;5.07;;;2.67;;
22531;SDS011;11432;46.924;7.114;2023-07-08T15:06:40;4.47;;;2.38;;
22531;SDS011;11432;46.924;7.114;2023-07-08T15:09:07;6.25;;;2.70;;
22531;SDS011;11432;46.924;7.114;2023-07-08T15:11:32;4.95;;;2.10;;
22531;SDS011;11432;46.924;7.114;2023-07-08T15:13:59;6.05;;;2.00;;
22531;SDS011;11432;46.924;7.114;2023-07-08T15:16:26;6.05;;;2.20;;
22531;SDS011;11432;46.924;7.114;2023-07-08T15:18:51;5.30;;;2.50;;
22531;SDS011;11432;46.924;7.114;2023-07-08T15:21:17;8.77;;;2.60;;
22531;SDS011;11432;46.924;7.114;2023-07-08T15:23:43;4.80;;;2.22;;
22531;SDS011;11432;46.924;7.114;2023-07-08T15:26:09;6.90;;;3.03;;
22531;SDS011;11432;46.924;7.114;2023-07-08T15:31:01;5.85;;;2.60;;
22531;SDS011;11432;46.924;7.114;2023-07-08T15:33:28;5.82;;;2.30;;
22531;SDS011;11432;46.924;7.114;2023-07-08T15:35:53;3.72;;;2.15;;
22531;SDS011;11432;46.924;7.114;2023-07-08T15:38:19;6.88;;;2.30;;
22531;SDS011;11432;46.924;7.114;2023-07-08T15:40:44;6.93;;;2.25;;
22531;SDS011;11432;46.924;7.114;2023-07-08T15:43:12;3.80;;;2.20;;
22531;SDS011;11432;46.924;7.114;2023-07-08T15:45:39;6.18;;;2.47;;
22531;SDS011;11432;46.924;7.114;2023-07-08T15:48:11;9.27;;;2.38;;
22531;SDS011;11432;46.924;7.114;2023-07-08T15:50:41;5.05;;;2.25;;
22531;SDS011;11432;46.924;7.114;2023-07-08T15:53:07;5.82;;;2.17;;
22531;SDS011;11432;46.924;7.114;2023-07-08T15:55:34;4.55;;;2.55;;
22531;SDS011;11432;46.924;7.114;2023-07-08T15:58:04;4.68;;;2.17;;
22531;SDS011;11432;46.924;7.114;2023-07-08T16:00:36;3.58;;;2.30;;
22531;SDS011;11432;46.924;7.114;2023-07-08T16:03:05;3.70;;;1.90;;
22531;SDS011;11432;46.924;7.114;2023-07-08T16:05:32;4.07;;;2.00;;
22531;SDS011;11432;46.924;7.114;2023-07-08T16:08:01;4.13;;;2.10;;
22531;SDS011;11432;46.924;7.114;2023-07-08T16:10:30;4.00;;;2.10;;
22531;SDS011;11432;46.924;7.114;2023-07-08T16:12:57;5.55;;;2.15;;
22531;SDS011;11432;46.924;7.114;2023-07-08T16:15:27;7.07;;;2.60;;
22531;SDS011;11432;46.924;7.114;2023-07-08T16:18:02;5.38;;;1.80;;
22531;SDS011;11432;46.924;7.114;2023-07-08T16:20:28;4.50;;;2.08;;
22531;SDS011;11432;46.924;7.114;2023-07-08T16:22:57;3.53;;;2.03;;
22531;SDS011;11432;46.924;7.114;2023-07-08T16:25:30;6.07;;;2.28;;
22531;SDS011;11432;46.924;7.114;2023-07-08T16:27:58;6.40;;;2.20;;